Time,TemperatureF,DewpointF,PressureIn,WindDirection,WindDirectionDegrees,WindSpeedMPH,WindSpeedGustMPH,Humidity,HourlyPrecipIn,Conditions,Clouds,dailyrainin,SolarRadiationWatts/m^2,SoftwareType,DateUTC
2013-03-17 00:03:00,39.9,36.9,30.07,SW,228,1.0,6.0,89,0.00,,,0.00,0,Wunderground v.1.15,2013-03-17 07:03:00,
2013-03-17 00:08:00,39.9,36.9,30.08,WSW,242,1.0,1.0,89,0.00,,,0.01,0,Wunderground v.1.15,2013-03-17 07:08:00,
2013-03-17 00:14:00,39.9,36.9,30.07,West,264,2.0,3.0,89,0.00,,,0.01,0,Wunderground v.1.15,2013-03-17 07:14:00,
2013-03-17 00:19:00,39.8,36.8,30.08,WSW,237,2.0,2.0,89,0.00,,,0.01,0,Wunderground v.1.15,2013-03-17 07:19:00,
2013-03-17 00:25:00,39.8,36.8,30.08,WSW,237,2.0,4.0,89,0.00,,,0.01,0,Wunderground v.1.15,2013-03-17 07:25:00,
2013-03-17 00:30:00,39.8,37.1,30.08,WSW,242,2.0,4.0,90,0.00,,,0.01,0,Wunderground v.1.15,2013-03-17 07:30:00,
2013-03-17 00:35:00,39.9,37.2,30.08,WSW,257,2.0,4.0,90,0.00,,,0.01,0,Wunderground v.1.15,2013-03-17 07:35:00,
2013-03-17 00:40:00,40.1,37.4,30.08,WSW,257,2.0,3.0,90,0.00,,,0.01,0,Wunderground v.1.15,2013-03-17 07:40:00,
2013-03-17 00:45:00,39.9,37.2,30.08,SW,221,2.0,5.0,90,0.00,,,0.01,0,Wunderground v.1.15,2013-03-17 07:45:00,
2013-03-17 00:50:00,39.8,37.1,30.08,SW,232,4.0,7.0,90,0.00,,,0.01,0,Wunderground v.1.15,2013-03-17 07:50:00,
2013-03-17 00:55:00,39.8,37.1,30.08,WSW,242,5.0,7.0,90,0.00,,,0.01,0,Wunderground v.1.15,2013-03-17 07:55:00,
2013-03-17 01:01:00,39.8,37.4,30.08,WSW,244,4.0,6.0,91,0.00,,,0.01,0,Wunderground v.1.15,2013-03-17 08:01:00,
2013-03-17 01:07:00,39.6,37.2,30.09,SW,235,4.0,6.0,91,0.00,,,0.01,0,Wunderground v.1.15,2013-03-17 08:07:00,
2013-03-17 01:13:00,39.6,37.2,30.09,WSW,251,3.0,3.0,91,0.00,,,0.01,0,Wunderground v.1.15,2013-03-17 08:13:00,
2013-03-17 01:19:00,39.5,37.1,30.09,WSW,250,4.0,7.0,91,0.00,,,0.02,0,Wunderground v.1.15,2013-03-17 08:19:00,
2013-03-17 01:25:00,39.5,37.1,30.10,WSW,244,5.0,7.0,91,0.00,,,0.02,0,Wunderground v.1.15,2013-03-17 08:25:00,
2013-03-17 01:30:00,39.3,36.9,30.09,SW,215,4.0,4.0,91,0.00,,,0.02,0,Wunderground v.1.15,2013-03-17 08:30:00,
2013-03-17 01:36:00,39.3,36.9,30.10,WSW,239,3.0,5.0,91,0.00,,,0.02,0,Wunderground v.1.15,2013-03-17 08:36:00,
2013-03-17 01:41:00,39.3,36.9,30.10,West,271,3.0,3.0,91,0.00,,,0.02,0,Wunderground v.1.15,2013-03-17 08:41:00,
2013-03-17 01:47:00,39.3,36.9,30.10,West,271,2.0,3.0,91,0.00,,,0.02,0,Wunderground v.1.15,2013-03-17 08:47:00,
2013-03-17 01:52:00,39.2,37.1,30.10,WSW,251,2.0,3.0,92,0.00,,,0.02,0,Wunderground v.1.15,2013-03-17 08:52:00,
2013-03-17 01:57:00,39.1,37.0,30.10,West,260,2.0,3.0,92,0.00,,,0.02,0,Wunderground v.1.15,2013-03-17 08:57:00,
2013-03-17 02:03:00,38.9,36.8,30.10,West,260,2.0,7.0,92,0.00,,,0.02,0,Wunderground v.1.15,2013-03-17 09:03:00,
2013-03-17 02:08:00,38.9,36.8,30.10,West,260,2.0,7.0,92,0.00,,,0.02,0,Wunderground v.1.15,2013-03-17 09:08:00,
2013-03-17 02:14:00,38.9,36.8,30.11,WSW,250,2.0,3.0,92,0.00,,,0.02,0,Wunderground v.1.15,2013-03-17 09:14:00,
2013-03-17 02:19:00,38.9,37.0,30.11,WNW,302,2.0,4.0,93,0.00,,,0.02,0,Wunderground v.1.15,2013-03-17 09:19:00,
2013-03-17 02:25:00,38.8,36.9,30.11,West,273,3.0,3.0,93,0.00,,,0.02,0,Wunderground v.1.15,2013-03-17 09:25:00,
2013-03-17 02:30:00,39.1,37.2,30.12,WSW,242,3.0,3.0,93,0.00,,,0.03,0,Wunderground v.1.15,2013-03-17 09:30:00,
2013-03-17 02:35:00,39.2,37.3,30.12,WSW,255,3.0,5.0,93,0.00,,,0.03,0,Wunderground v.1.15,2013-03-17 09:35:00,
2013-03-17 02:41:00,39.2,37.3,30.12,WSW,246,3.0,3.0,93,0.00,,,0.03,0,Wunderground v.1.15,2013-03-17 09:41:00,
2013-03-17 02:46:00,39.1,37.2,30.12,SW,236,2.0,6.0,93,0.00,,,0.03,0,Wunderground v.1.15,2013-03-17 09:46:00,
2013-03-17 02:51:00,38.9,37.0,30.12,WSW,251,3.0,6.0,93,0.00,,,0.03,0,Wunderground v.1.15,2013-03-17 09:51:00,
2013-03-17 02:56:00,39.2,36.8,30.13,WNW,295,4.0,8.0,91,0.00,,,0.03,0,Wunderground v.1.15,2013-03-17 09:56:00,
2013-03-17 03:01:00,39.5,36.8,30.13,NW,311,4.0,9.0,90,0.00,,,0.03,0,Wunderground v.1.15,2013-03-17 10:01:00,
2013-03-17 03:06:00,39.6,36.9,30.13,WSW,246,4.0,9.0,90,0.00,,,0.03,0,Wunderground v.1.15,2013-03-17 10:06:00,
2013-03-17 03:12:00,39.5,36.8,30.14,SW,234,3.0,4.0,90,0.00,,,0.03,0,Wunderground v.1.15,2013-03-17 10:12:00,
2013-03-17 03:18:00,39.5,36.8,30.14,SW,229,2.0,5.0,90,0.00,,,0.03,0,Wunderground v.1.15,2013-03-17 10:18:00,
2013-03-17 03:23:00,39.5,36.8,30.15,WNW,301,1.0,3.0,90,0.00,,,0.03,0,Wunderground v.1.15,2013-03-17 10:23:00,
2013-03-17 03:28:00,39.5,37.1,30.15,NW,324,2.0,5.0,91,0.00,,,0.04,0,Wunderground v.1.15,2013-03-17 10:28:00,
2013-03-17 03:33:00,39.5,36.5,30.15,West,275,3.0,4.0,89,0.10,,,0.05,0,Wunderground v.1.15,2013-03-17 10:33:00,
2013-03-17 03:39:00,39.5,36.5,30.14,WSW,246,3.0,4.0,89,0.08,,,0.05,0,Wunderground v.1.15,2013-03-17 10:39:00,
2013-03-17 03:44:00,39.3,36.6,30.14,South,191,2.0,3.0,90,0.05,,,0.05,0,Wunderground v.1.15,2013-03-17 10:44:00,
2013-03-17 03:49:00,39.1,36.7,30.15,South,191,1.0,3.0,91,0.00,,,0.05,0,Wunderground v.1.15,2013-03-17 10:49:00,
2013-03-17 03:55:00,38.8,36.4,30.15,South,173,2.0,4.0,91,0.00,,,0.05,0,Wunderground v.1.15,2013-03-17 10:55:00,
2013-03-17 04:00:00,38.8,36.7,30.15,West,265,3.0,3.0,92,0.00,,,0.05,0,Wunderground v.1.15,2013-03-17 11:00:00,
2013-03-17 04:05:00,38.8,36.7,30.15,West,265,3.0,10.0,92,0.00,,,0.05,0,Wunderground v.1.15,2013-03-17 11:05:00,
2013-03-17 04:11:00,38.6,36.5,30.15,South,190,2.0,4.0,92,0.00,,,0.05,0,Wunderground v.1.15,2013-03-17 11:11:00,
2013-03-17 04:16:00,38.6,36.2,30.15,South,180,2.0,4.0,91,0.00,,,0.05,0,Wunderground v.1.15,2013-03-17 11:16:00,
2013-03-17 04:21:00,38.5,36.1,30.15,South,180,2.0,2.0,91,0.00,,,0.05,0,Wunderground v.1.15,2013-03-17 11:21:00,
2013-03-17 04:26:00,38.2,35.8,30.16,South,184,2.0,2.0,91,0.00,,,0.05,0,Wunderground v.1.15,2013-03-17 11:26:00,
2013-03-17 04:32:00,37.9,35.5,30.16,SW,231,2.0,3.0,91,0.00,,,0.05,0,Wunderground v.1.15,2013-03-17 11:32:00,
2013-03-17 04:37:00,37.8,35.4,30.16,SW,217,2.0,5.0,91,0.00,,,0.05,0,Wunderground v.1.15,2013-03-17 11:37:00,
2013-03-17 04:42:00,37.8,35.4,30.16,SW,217,1.0,2.0,91,0.00,,,0.05,0,Wunderground v.1.15,2013-03-17 11:42:00,
2013-03-17 04:48:00,37.6,35.2,30.17,SW,217,0.0,2.0,91,0.00,,,0.05,0,Wunderground v.1.15,2013-03-17 11:48:00,
2013-03-17 04:53:00,37.5,35.1,30.17,SW,217,0.0,0.0,91,0.00,,,0.05,0,Wunderground v.1.15,2013-03-17 11:53:00,
2013-03-17 04:58:00,37.3,35.2,30.16,SW,217,0.0,0.0,92,0.00,,,0.05,0,Wunderground v.1.15,2013-03-17 11:58:00,
2013-03-17 05:04:00,37.2,35.1,30.17,SW,217,0.0,6.0,92,0.00,,,0.05,0,Wunderground v.1.15,2013-03-17 12:04:00,
2013-03-17 05:10:00,37.2,35.1,30.17,SW,217,0.0,0.0,92,0.00,,,0.05,0,Wunderground v.1.15,2013-03-17 12:10:00,
2013-03-17 05:15:00,37.3,35.5,30.18,SW,217,0.0,2.0,93,0.00,,,0.05,0,Wunderground v.1.15,2013-03-17 12:15:00,
2013-03-17 05:20:00,37.2,35.4,30.19,North,360,1.0,1.0,93,0.00,,,0.05,0,Wunderground v.1.15,2013-03-17 12:20:00,
2013-03-17 05:25:00,37.0,35.2,30.18,North,360,1.0,1.0,93,0.00,,,0.05,0,Wunderground v.1.15,2013-03-17 12:25:00,
2013-03-17 05:31:00,37.2,35.4,30.18,North,360,1.0,1.0,93,0.00,,,0.05,0,Wunderground v.1.15,2013-03-17 12:31:00,
2013-03-17 05:36:00,37.2,35.4,30.18,North,360,0.0,1.0,93,0.00,,,0.05,0,Wunderground v.1.15,2013-03-17 12:36:00,
2013-03-17 05:41:00,37.3,35.5,30.19,North,360,0.0,0.0,93,0.00,,,0.05,0,Wunderground v.1.15,2013-03-17 12:41:00,
2013-03-17 05:46:00,37.2,35.4,30.19,North,360,1.0,1.0,93,0.00,,,0.05,0,Wunderground v.1.15,2013-03-17 12:46:00,
2013-03-17 05:52:00,37.0,35.2,30.19,North,360,1.0,1.0,93,0.00,,,0.05,0,Wunderground v.1.15,2013-03-17 12:52:00,
2013-03-17 05:57:00,36.8,35.0,30.19,SSW,199,1.0,2.0,93,0.00,,,0.05,0,Wunderground v.1.15,2013-03-17 12:57:00,
2013-03-17 06:03:00,36.6,35.0,30.19,SSW,199,1.0,2.0,94,0.00,,,0.05,0,Wunderground v.1.15,2013-03-17 13:03:00,
2013-03-17 06:08:00,36.8,35.2,30.19,SW,227,1.0,2.0,94,0.00,,,0.05,0,Wunderground v.1.15,2013-03-17 13:08:00,
2013-03-17 06:13:00,36.6,35.0,30.19,SW,227,2.0,2.0,94,0.00,,,0.05,0,Wunderground v.1.15,2013-03-17 13:13:00,
2013-03-17 06:18:00,36.6,34.8,30.20,SW,227,1.0,2.0,93,0.00,,,0.05,0,Wunderground v.1.15,2013-03-17 13:18:00,
2013-03-17 06:24:00,36.3,34.5,30.20,SW,227,0.0,2.0,93,0.00,,,0.05,0,Wunderground v.1.15,2013-03-17 13:24:00,
2013-03-17 06:29:00,36.2,34.6,30.20,SW,227,1.0,3.0,94,0.00,,,0.05,0,Wunderground v.1.15,2013-03-17 13:29:00,
2013-03-17 06:34:00,36.3,34.7,30.20,SW,227,1.0,1.0,94,0.00,,,0.05,0,Wunderground v.1.15,2013-03-17 13:34:00,
2013-03-17 06:40:00,36.5,34.7,30.20,SW,227,1.0,1.0,93,0.00,,,0.05,0,Wunderground v.1.15,2013-03-17 13:40:00,
2013-03-17 06:45:00,36.6,35.0,30.20,SW,227,1.0,1.0,94,0.00,,,0.05,0,Wunderground v.1.15,2013-03-17 13:45:00,
2013-03-17 06:50:00,36.6,34.8,30.21,SW,227,0.0,0.0,93,0.00,,,0.05,0,Wunderground v.1.15,2013-03-17 13:50:00,
2013-03-17 06:55:00,36.6,34.8,30.21,SSW,194,0.0,2.0,93,0.00,,,0.05,0,Wunderground v.1.15,2013-03-17 13:55:00,
2013-03-17 07:01:00,36.6,34.8,30.21,SSW,194,1.0,2.0,93,0.00,,,0.05,0,Wunderground v.1.15,2013-03-17 14:01:00,
2013-03-17 07:06:00,36.8,35.0,30.21,SSW,194,1.0,4.0,93,0.00,,,0.05,0,Wunderground v.1.15,2013-03-17 14:06:00,
2013-03-17 07:11:00,36.9,34.8,30.21,SSE,159,1.0,1.0,92,0.00,,,0.05,0,Wunderground v.1.15,2013-03-17 14:11:00,
2013-03-17 07:16:00,37.0,34.9,30.21,SSE,159,1.0,2.0,92,0.00,,,0.05,0,Wunderground v.1.15,2013-03-17 14:16:00,
2013-03-17 07:21:00,37.0,34.6,30.22,SSE,158,0.0,1.0,91,0.00,,,0.05,5,Wunderground v.1.15,2013-03-17 14:21:00,
2013-03-17 07:26:00,37.2,34.8,30.22,SSE,158,0.0,1.0,91,0.00,,,0.05,7,Wunderground v.1.15,2013-03-17 14:26:00,
2013-03-17 07:31:00,37.2,34.8,30.22,SSE,154,1.0,2.0,91,0.00,,,0.05,7,Wunderground v.1.15,2013-03-17 14:31:00,
2013-03-17 07:37:00,37.0,34.6,30.23,SSE,154,2.0,2.0,91,0.00,,,0.05,7,Wunderground v.1.15,2013-03-17 14:37:00,
2013-03-17 07:42:00,37.0,34.6,30.23,SSE,154,1.0,1.0,91,0.00,,,0.05,14,Wunderground v.1.15,2013-03-17 14:42:00,
2013-03-17 07:48:00,37.0,34.9,30.23,SSE,154,0.0,1.0,92,0.00,,,0.05,25,Wunderground v.1.15,2013-03-17 14:48:00,
2013-03-17 07:53:00,37.2,35.4,30.23,SSE,154,0.0,1.0,93,0.00,,,0.05,30,Wunderground v.1.15,2013-03-17 14:53:00,
2013-03-17 07:58:00,37.2,35.4,30.23,SSE,154,0.0,1.0,93,0.00,,,0.05,33,Wunderground v.1.15,2013-03-17 14:58:00,
2013-03-17 08:04:00,37.2,35.4,30.24,SSE,154,0.0,3.0,93,0.00,,,0.05,40,Wunderground v.1.15,2013-03-17 15:04:00,
2013-03-17 08:09:00,37.2,35.4,30.24,SSE,154,0.0,3.0,93,0.00,,,0.05,47,Wunderground v.1.15,2013-03-17 15:09:00,
2013-03-17 08:14:00,37.2,35.4,30.24,SSE,154,0.0,1.0,93,0.00,,,0.05,53,Wunderground v.1.15,2013-03-17 15:14:00,
2013-03-17 08:19:00,37.2,35.4,30.24,SSE,154,0.0,1.0,93,0.00,,,0.05,58,Wunderground v.1.15,2013-03-17 15:19:00,
2013-03-17 08:25:00,37.2,35.1,30.24,SSE,154,0.0,1.0,92,0.00,,,0.05,67,Wunderground v.1.15,2013-03-17 15:25:00,
2013-03-17 08:30:00,37.2,35.4,30.24,SSE,154,0.0,0.0,93,0.00,,,0.05,67,Wunderground v.1.15,2013-03-17 15:30:00,
2013-03-17 08:35:00,37.3,35.2,30.24,SSE,154,0.0,1.0,92,0.00,,,0.05,65,Wunderground v.1.15,2013-03-17 15:35:00,
2013-03-17 08:40:00,37.5,35.4,30.25,SSE,154,0.0,0.0,92,0.00,,,0.05,60,Wunderground v.1.15,2013-03-17 15:40:00,
2013-03-17 08:45:00,37.6,35.5,30.25,SSE,154,0.0,0.0,92,0.00,,,0.05,74,Wunderground v.1.15,2013-03-17 15:45:00,
2013-03-17 08:50:00,37.6,35.5,30.25,SSE,154,0.0,0.0,92,0.00,,,0.05,67,Wunderground v.1.15,2013-03-17 15:50:00,
2013-03-17 08:56:00,37.8,35.7,30.25,SE,138,1.0,4.0,92,0.00,,,0.05,76,Wunderground v.1.15,2013-03-17 15:56:00,
2013-03-17 09:01:00,38.0,35.6,30.26,SE,142,1.0,5.0,91,0.00,,,0.05,74,Wunderground v.1.15,2013-03-17 16:01:00,
2013-03-17 09:07:00,38.2,35.8,30.26,South,181,2.0,5.0,91,0.00,,,0.05,76,Wunderground v.1.15,2013-03-17 16:07:00,
2013-03-17 09:12:00,38.3,35.9,30.26,SSW,194,1.0,3.0,91,0.00,,,0.05,90,Wunderground v.1.15,2013-03-17 16:12:00,
2013-03-17 09:17:00,38.3,35.9,30.26,SSW,194,1.0,3.0,91,0.00,,,0.05,109,Wunderground v.1.15,2013-03-17 16:17:00,
2013-03-17 09:22:00,38.6,35.9,30.26,South,177,1.0,2.0,90,0.00,,,0.05,109,Wunderground v.1.15,2013-03-17 16:22:00,
2013-03-17 09:28:00,38.8,36.1,30.26,SSW,193,2.0,4.0,90,0.00,,,0.05,116,Wunderground v.1.15,2013-03-17 16:28:00,
2013-03-17 09:33:00,38.9,36.2,30.27,SSW,199,3.0,5.0,90,0.00,,,0.05,139,Wunderground v.1.15,2013-03-17 16:33:00,
2013-03-17 09:39:00,39.1,36.4,30.27,South,185,3.0,5.0,90,0.00,,,0.05,158,Wunderground v.1.15,2013-03-17 16:39:00,
2013-03-17 09:44:00,39.2,36.5,30.27,South,171,2.0,3.0,90,0.00,,,0.05,146,Wunderground v.1.15,2013-03-17 16:44:00,
2013-03-17 09:49:00,39.3,36.6,30.26,SSE,154,2.0,4.0,90,0.00,,,0.05,135,Wunderground v.1.15,2013-03-17 16:49:00,
2013-03-17 09:54:00,39.3,36.6,30.26,SSE,166,2.0,3.0,90,0.00,,,0.05,167,Wunderground v.1.15,2013-03-17 16:54:00,
2013-03-17 09:59:00,39.5,36.8,30.26,South,180,3.0,5.0,90,0.00,,,0.05,207,Wunderground v.1.15,2013-03-17 16:59:00,
2013-03-17 10:05:00,39.6,36.6,30.26,South,181,3.0,4.0,89,0.00,,,0.05,207,Wunderground v.1.15,2013-03-17 17:05:00,
2013-03-17 10:12:00,39.8,36.8,30.26,SE,132,2.0,2.0,89,0.00,,,0.05,199,Wunderground v.1.15,2013-03-17 17:12:00,
2013-03-17 10:17:00,40.1,36.8,30.26,SW,215,2.0,3.0,88,0.00,,,0.05,179,Wunderground v.1.15,2013-03-17 17:17:00,
2013-03-17 10:22:00,40.2,36.6,30.26,SW,215,1.0,1.0,87,0.00,,,0.05,197,Wunderground v.1.15,2013-03-17 17:22:00,
2013-03-17 10:28:00,40.5,36.6,30.26,SSE,163,1.0,4.0,86,0.00,,,0.05,264,Wunderground v.1.15,2013-03-17 17:28:00,
2013-03-17 10:34:00,40.6,37.0,30.26,South,173,2.0,3.0,87,0.00,,,0.05,236,Wunderground v.1.15,2013-03-17 17:34:00,
2013-03-17 10:39:00,40.9,37.6,30.27,South,173,2.0,3.0,88,0.00,,,0.05,225,Wunderground v.1.15,2013-03-17 17:39:00,
2013-03-17 10:44:00,41.2,37.3,30.27,SW,220,2.0,7.0,86,0.00,,,0.05,241,Wunderground v.1.15,2013-03-17 17:44:00,
2013-03-17 10:49:00,41.2,35.8,30.27,SW,236,3.0,7.0,81,0.00,,,0.05,186,Wunderground v.1.15,2013-03-17 17:49:00,
2013-03-17 10:55:00,41.5,37.3,30.27,SSW,197,2.0,3.0,85,0.00,,,0.05,216,Wunderground v.1.15,2013-03-17 17:55:00,
2013-03-17 11:00:00,41.6,36.8,30.27,SW,235,2.0,2.0,83,0.00,,,0.05,193,Wunderground v.1.15,2013-03-17 18:00:00,
2013-03-17 11:05:00,41.8,37.3,30.27,WNW,286,4.0,6.0,84,0.00,,,0.05,216,Wunderground v.1.15,2013-03-17 18:05:00,
2013-03-17 11:11:00,41.6,36.5,30.26,West,268,3.0,3.0,82,0.00,,,0.05,213,Wunderground v.1.15,2013-03-17 18:11:00,
2013-03-17 11:16:00,41.5,36.4,30.27,West,279,3.0,5.0,82,0.00,,,0.05,162,Wunderground v.1.15,2013-03-17 18:16:00,
2013-03-17 11:21:00,41.3,36.2,30.27,WNW,288,4.0,5.0,82,0.00,,,0.05,149,Wunderground v.1.15,2013-03-17 18:21:00,
2013-03-17 11:26:00,40.9,36.1,30.27,West,278,5.0,6.0,83,0.00,,,0.05,141,Wunderground v.1.15,2013-03-17 18:26:00,
2013-03-17 11:32:00,40.6,36.1,30.26,WSW,246,3.0,4.0,84,0.00,,,0.06,197,Wunderground v.1.15,2013-03-17 18:32:00,
2013-03-17 11:37:00,40.5,36.0,30.26,SW,217,2.0,4.0,84,0.00,,,0.06,323,Wunderground v.1.15,2013-03-17 18:37:00,
2013-03-17 11:42:00,40.6,36.7,30.25,SW,217,1.0,1.0,86,0.00,,,0.06,568,Wunderground v.1.15,2013-03-17 18:42:00,
2013-03-17 11:47:00,41.2,37.0,30.25,ESE,105,1.0,3.0,85,0.00,,,0.06,587,Wunderground v.1.15,2013-03-17 18:47:00,
2013-03-17 11:53:00,41.8,37.6,30.25,ESE,106,1.0,2.0,85,0.00,,,0.06,592,Wunderground v.1.15,2013-03-17 18:53:00,
2013-03-17 11:59:00,42.3,37.2,30.26,ESE,105,1.0,2.0,82,0.00,,,0.06,679,Wunderground v.1.15,2013-03-17 18:59:00,
2013-03-17 12:04:00,43.2,37.8,30.26,ESE,105,0.0,8.0,81,0.00,,,0.06,756,Wunderground v.1.15,2013-03-17 19:04:00,
2013-03-17 12:09:00,43.3,37.5,30.25,South,175,1.0,8.0,80,0.00,,,0.06,425,Wunderground v.1.15,2013-03-17 19:09:00,
2013-03-17 12:14:00,43.1,37.3,30.25,South,172,2.0,3.0,80,0.00,,,0.06,475,Wunderground v.1.15,2013-03-17 19:14:00,
2013-03-17 12:20:00,43.5,37.7,30.25,SSE,161,1.0,1.0,80,0.00,,,0.06,338,Wunderground v.1.15,2013-03-17 19:20:00,
2013-03-17 12:25:00,43.2,36.5,30.25,South,175,1.0,3.0,77,0.00,,,0.06,257,Wunderground v.1.15,2013-03-17 19:25:00,
2013-03-17 12:30:00,43.3,37.9,30.25,South,169,2.0,2.0,81,0.00,,,0.06,114,Wunderground v.1.15,2013-03-17 19:30:00,
2013-03-17 12:35:00,43.3,37.9,30.25,SW,236,1.0,3.0,81,0.00,,,0.06,93,Wunderground v.1.15,2013-03-17 19:35:00,
2013-03-17 12:41:00,41.9,35.9,30.25,West,272,4.0,5.0,79,0.00,,,0.06,311,Wunderground v.1.15,2013-03-17 19:41:00,
2013-03-17 12:47:00,41.9,37.1,30.25,West,263,6.0,7.0,83,0.00,,,0.06,608,Wunderground v.1.15,2013-03-17 19:47:00,
2013-03-17 12:52:00,42.6,38.1,30.25,West,271,5.0,7.0,84,0.00,,,0.06,640,Wunderground v.1.15,2013-03-17 19:52:00,
2013-03-17 12:58:00,42.6,37.2,30.25,WNW,289,5.0,7.0,81,0.00,,,0.06,671,Wunderground v.1.15,2013-03-17 19:58:00,
2013-03-17 13:03:00,42.6,37.2,30.25,West,272,6.0,6.0,81,0.00,,,0.06,714,Wunderground v.1.15,2013-03-17 20:03:00,
2013-03-17 13:08:00,43.2,37.8,30.25,WNW,301,5.0,6.0,81,0.00,,,0.06,691,Wunderground v.1.15,2013-03-17 20:08:00,
2013-03-17 13:14:00,43.6,37.2,30.25,West,279,4.0,5.0,78,0.00,,,0.06,533,Wunderground v.1.15,2013-03-17 20:14:00,
2013-03-17 13:19:00,44.1,37.0,30.25,WNW,292,4.0,7.0,76,0.00,,,0.06,642,Wunderground v.1.15,2013-03-17 20:19:00,
2013-03-17 13:24:00,44.5,37.4,30.25,NW,311,4.0,7.0,76,0.00,,,0.06,712,Wunderground v.1.15,2013-03-17 20:24:00,
2013-03-17 13:29:00,45.1,38.0,30.25,West,263,4.0,7.0,76,0.00,,,0.06,339,Wunderground v.1.15,2013-03-17 20:29:00,
2013-03-17 13:34:00,45.4,37.6,30.25,West,266,3.0,9.0,74,0.00,,,0.06,348,Wunderground v.1.15,2013-03-17 20:34:00,
2013-03-17 13:40:00,45.7,35.7,30.24,WSW,244,4.0,5.0,68,0.00,,,0.06,248,Wunderground v.1.15,2013-03-17 20:40:00,
2013-03-17 13:45:00,45.7,36.8,30.24,WNW,286,4.0,7.0,71,0.00,,,0.06,306,Wunderground v.1.15,2013-03-17 20:45:00,
2013-03-17 13:50:00,46.1,37.2,30.24,WNW,295,4.0,4.0,71,0.00,,,0.06,162,Wunderground v.1.15,2013-03-17 20:50:00,
2013-03-17 13:56:00,45.8,35.8,30.24,West,281,5.0,9.0,68,0.00,,,0.06,123,Wunderground v.1.15,2013-03-17 20:56:00,
2013-03-17 14:01:00,45.4,37.2,30.24,West,267,6.0,8.0,73,0.00,,,0.06,206,Wunderground v.1.15,2013-03-17 21:01:00,
2013-03-17 14:06:00,44.5,36.4,30.24,West,270,8.0,10.0,73,0.00,,,0.06,278,Wunderground v.1.15,2013-03-17 21:06:00,
2013-03-17 14:12:00,44.5,36.4,30.23,SW,219,8.0,8.0,73,0.00,,,0.06,378,Wunderground v.1.15,2013-03-17 21:12:00,
2013-03-17 14:17:00,44.6,36.8,30.23,WSW,238,7.0,10.0,74,0.00,,,0.06,422,Wunderground v.1.15,2013-03-17 21:17:00,
2013-03-17 14:22:00,45.1,36.3,30.23,WSW,241,7.0,12.0,71,0.00,,,0.06,631,Wunderground v.1.15,2013-03-17 21:22:00,
2013-03-17 14:28:00,46.0,36.8,30.23,WSW,244,7.0,12.0,70,0.00,,,0.06,638,Wunderground v.1.15,2013-03-17 21:28:00,
2013-03-17 14:33:00,46.4,35.7,30.23,SW,227,7.0,15.0,66,0.00,,,0.06,559,Wunderground v.1.15,2013-03-17 21:33:00,
2013-03-17 14:38:00,46.2,35.8,30.23,WSW,244,9.0,15.0,67,0.00,,,0.06,408,Wunderground v.1.15,2013-03-17 21:38:00,
2013-03-17 14:44:00,46.8,36.0,30.22,SW,232,7.0,10.0,66,0.00,,,0.06,281,Wunderground v.1.15,2013-03-17 21:44:00,
2013-03-17 14:49:00,46.7,34.8,30.22,WNW,290,6.0,10.0,63,0.00,,,0.06,308,Wunderground v.1.15,2013-03-17 21:49:00,
2013-03-17 14:54:00,46.0,33.7,30.22,WSW,245,8.0,10.0,62,0.00,,,0.06,526,Wunderground v.1.15,2013-03-17 21:54:00,
2013-03-17 14:59:00,45.7,34.6,30.22,West,266,9.0,13.0,65,0.00,,,0.06,364,Wunderground v.1.15,2013-03-17 21:59:00,
2013-03-17 15:04:00,46.0,34.5,30.22,WSW,242,7.0,13.0,64,0.00,,,0.06,334,Wunderground v.1.15,2013-03-17 22:04:00,
2013-03-17 15:09:00,46.5,34.2,30.22,WSW,241,5.0,13.0,62,0.00,,,0.06,568,Wunderground v.1.15,2013-03-17 22:09:00,
2013-03-17 15:14:00,46.7,33.5,30.22,WSW,246,6.0,8.0,60,0.00,,,0.06,504,Wunderground v.1.15,2013-03-17 22:14:00,
2013-03-17 15:20:00,46.5,33.8,30.22,SW,228,6.0,6.0,61,0.00,,,0.06,364,Wunderground v.1.15,2013-03-17 22:20:00,
2013-03-17 15:25:00,47.0,35.8,30.22,West,271,6.0,7.0,65,0.00,,,0.06,216,Wunderground v.1.15,2013-03-17 22:25:00,
2013-03-17 15:30:00,45.2,36.4,30.23,West,263,8.0,14.0,71,0.00,,,0.07,135,Wunderground v.1.15,2013-03-17 22:30:00,
2013-03-17 15:35:00,43.6,35.5,30.23,SSW,213,10.0,14.0,73,0.00,,,0.07,130,Wunderground v.1.15,2013-03-17 22:35:00,
2013-03-17 15:40:00,43.5,36.4,30.23,WNW,294,7.0,7.0,76,0.00,,,0.07,202,Wunderground v.1.15,2013-03-17 22:40:00,
2013-03-17 15:46:00,43.6,36.9,30.23,WNW,289,5.0,9.0,77,0.00,,,0.07,283,Wunderground v.1.15,2013-03-17 22:46:00,
2013-03-17 15:51:00,44.1,37.0,30.23,WSW,242,4.0,13.0,76,0.00,,,0.07,230,Wunderground v.1.15,2013-03-17 22:51:00,
2013-03-17 15:57:00,44.2,35.7,30.23,SW,234,6.0,13.0,72,0.00,,,0.07,137,Wunderground v.1.15,2013-03-17 22:57:00,
2013-03-17 16:03:00,43.8,36.4,30.23,WNW,290,6.0,15.0,75,0.00,,,0.07,135,Wunderground v.1.15,2013-03-17 23:03:00,
2013-03-17 16:08:00,43.3,36.6,30.23,West,261,7.0,15.0,77,0.00,,,0.07,181,Wunderground v.1.15,2013-03-17 23:08:00,
2013-03-17 16:14:00,43.3,37.5,30.23,WSW,257,7.0,8.0,80,0.00,,,0.07,172,Wunderground v.1.15,2013-03-17 23:14:00,
2013-03-17 16:19:00,43.6,35.5,30.23,WSW,258,5.0,9.0,73,0.00,,,0.07,188,Wunderground v.1.15,2013-03-17 23:19:00,
2013-03-17 16:24:00,43.9,36.5,30.23,West,262,5.0,7.0,75,0.00,,,0.07,253,Wunderground v.1.15,2013-03-17 23:24:00,
2013-03-17 16:29:00,44.1,37.3,30.23,SW,221,5.0,7.0,77,0.00,,,0.07,346,Wunderground v.1.15,2013-03-17 23:29:00,
2013-03-17 16:34:00,44.5,37.7,30.23,West,266,4.0,5.0,77,0.00,,,0.07,325,Wunderground v.1.15,2013-03-17 23:34:00,
2013-03-17 16:40:00,44.6,37.5,30.23,SW,236,4.0,4.0,76,0.00,,,0.07,323,Wunderground v.1.15,2013-03-17 23:40:00,
2013-03-17 16:45:00,44.8,37.7,30.23,West,260,5.0,9.0,76,0.00,,,0.07,292,Wunderground v.1.15,2013-03-17 23:45:00,
2013-03-17 16:51:00,44.9,38.1,30.23,WSW,238,4.0,5.0,77,0.00,,,0.07,229,Wunderground v.1.15,2013-03-17 23:51:00,
2013-03-17 16:57:00,45.1,38.3,30.23,West,273,4.0,7.0,77,0.00,,,0.07,146,Wunderground v.1.15,2013-03-17 23:57:00,
2013-03-17 17:02:00,44.9,37.8,30.24,WSW,241,4.0,13.0,76,0.00,,,0.07,125,Wunderground v.1.15,2013-03-18 00:02:00,
2013-03-17 17:07:00,44.6,36.8,30.24,West,262,5.0,13.0,74,0.00,,,0.07,113,Wunderground v.1.15,2013-03-18 00:07:00,
2013-03-17 17:12:00,44.6,37.2,30.24,West,275,5.0,8.0,75,0.00,,,0.07,118,Wunderground v.1.15,2013-03-18 00:12:00,
2013-03-17 17:18:00,44.5,37.4,30.24,West,273,5.0,8.0,76,0.00,,,0.07,128,Wunderground v.1.15,2013-03-18 00:18:00,
2013-03-17 17:23:00,44.3,36.5,30.24,SW,229,4.0,6.0,74,0.00,,,0.07,134,Wunderground v.1.15,2013-03-18 00:23:00,
2013-03-17 17:28:00,43.9,36.5,30.24,West,269,5.0,9.0,75,0.00,,,0.07,125,Wunderground v.1.15,2013-03-18 00:28:00,
2013-03-17 17:34:00,43.3,35.9,30.24,WNW,282,7.0,11.0,75,0.00,,,0.07,102,Wunderground v.1.15,2013-03-18 00:34:00,
2013-03-17 17:39:00,43.2,36.1,30.24,West,277,7.0,11.0,76,0.00,,,0.07,97,Wunderground v.1.15,2013-03-18 00:39:00,
2013-03-17 17:45:00,43.2,36.1,30.23,WSW,246,6.0,7.0,76,0.00,,,0.07,88,Wunderground v.1.15,2013-03-18 00:45:00,
2013-03-17 17:50:00,43.2,36.1,30.23,WSW,242,4.0,4.0,76,0.00,,,0.07,81,Wunderground v.1.15,2013-03-18 00:50:00,
2013-03-17 17:55:00,43.3,35.9,30.23,SSW,203,4.0,6.0,75,0.00,,,0.07,88,Wunderground v.1.15,2013-03-18 00:55:00,
2013-03-17 18:00:00,43.5,36.1,30.23,WSW,241,4.0,4.0,75,0.00,,,0.07,100,Wunderground v.1.15,2013-03-18 01:00:00,
2013-03-17 18:05:00,43.8,36.4,30.23,SW,229,3.0,7.0,75,0.00,,,0.07,88,Wunderground v.1.15,2013-03-18 01:05:00,
2013-03-17 18:11:00,43.8,36.4,30.23,WSW,254,3.0,3.0,75,0.00,,,0.07,79,Wunderground v.1.15,2013-03-18 01:11:00,
2013-03-17 18:17:00,43.6,36.2,30.23,SW,236,4.0,6.0,75,0.00,,,0.07,70,Wunderground v.1.15,2013-03-18 01:17:00,
2013-03-17 18:22:00,43.9,36.5,30.22,SW,236,4.0,4.0,75,0.00,,,0.07,72,Wunderground v.1.15,2013-03-18 01:22:00,
2013-03-17 18:27:00,44.1,36.0,30.22,SSW,207,4.0,7.0,73,0.00,,,0.07,62,Wunderground v.1.15,2013-03-18 01:27:00,
2013-03-17 18:32:00,44.1,35.6,30.22,SW,233,4.0,5.0,72,0.00,,,0.07,60,Wunderground v.1.15,2013-03-18 01:32:00,
2013-03-17 18:37:00,44.1,35.3,30.22,SW,232,5.0,9.0,71,0.00,,,0.07,58,Wunderground v.1.15,2013-03-18 01:37:00,
2013-03-17 18:43:00,44.1,35.6,30.22,WSW,245,4.0,6.0,72,0.00,,,0.07,44,Wunderground v.1.15,2013-03-18 01:43:00,
2013-03-17 18:48:00,44.1,36.0,30.22,SW,225,4.0,7.0,73,0.00,,,0.07,40,Wunderground v.1.15,2013-03-18 01:48:00,
2013-03-17 18:53:00,43.9,36.1,30.22,SW,232,4.0,5.0,74,0.00,,,0.07,35,Wunderground v.1.15,2013-03-18 01:53:00,
2013-03-17 18:58:00,43.9,36.5,30.22,WSW,249,4.0,5.0,75,0.00,,,0.07,32,Wunderground v.1.15,2013-03-18 01:58:00,
2013-03-17 19:03:00,43.8,36.7,30.22,WSW,239,3.0,8.0,76,0.00,,,0.07,25,Wunderground v.1.15,2013-03-18 02:03:00,
2013-03-17 19:09:00,43.8,36.7,30.22,WSW,239,2.0,8.0,76,0.00,,,0.07,16,Wunderground v.1.15,2013-03-18 02:09:00,
2013-03-17 19:14:00,43.9,37.2,30.23,WSW,239,1.0,3.0,77,0.00,,,0.07,9,Wunderground v.1.15,2013-03-18 02:14:00,
2013-03-17 19:19:00,43.8,37.1,30.23,West,267,2.0,5.0,77,0.00,,,0.07,5,Wunderground v.1.15,2013-03-18 02:19:00,
2013-03-17 19:24:00,43.8,37.1,30.23,NW,315,3.0,5.0,77,0.00,,,0.07,0,Wunderground v.1.15,2013-03-18 02:24:00,
2013-03-17 19:30:00,43.3,36.2,30.23,West,275,4.0,6.0,76,0.00,,,0.07,0,Wunderground v.1.15,2013-03-18 02:30:00,
2013-03-17 19:35:00,43.1,35.7,30.23,WNW,284,5.0,9.0,75,0.00,,,0.07,0,Wunderground v.1.15,2013-03-18 02:35:00,
2013-03-17 19:40:00,42.8,35.8,30.23,WNW,290,5.0,6.0,76,0.00,,,0.07,0,Wunderground v.1.15,2013-03-18 02:40:00,
2013-03-17 19:45:00,42.3,35.3,30.23,WNW,295,5.0,7.0,76,0.00,,,0.07,0,Wunderground v.1.15,2013-03-18 02:45:00,
2013-03-17 19:51:00,42.2,36.2,30.23,WNW,282,5.0,5.0,79,0.00,,,0.07,0,Wunderground v.1.15,2013-03-18 02:51:00,
2013-03-17 19:56:00,42.1,36.4,30.23,WNW,288,3.0,5.0,80,0.00,,,0.07,0,Wunderground v.1.15,2013-03-18 02:56:00,
2013-03-17 20:01:00,41.9,35.9,30.23,WNW,296,3.0,6.0,79,0.00,,,0.07,0,Wunderground v.1.15,2013-03-18 03:01:00,
2013-03-17 20:06:00,42.1,36.4,30.23,WNW,297,2.0,6.0,80,0.00,,,0.07,0,Wunderground v.1.15,2013-03-18 03:06:00,
2013-03-17 20:11:00,42.1,36.4,30.23,WNW,297,1.0,1.0,80,0.00,,,0.07,0,Wunderground v.1.15,2013-03-18 03:11:00,
2013-03-17 20:16:00,41.9,36.2,30.23,WNW,297,1.0,2.0,80,0.00,,,0.07,0,Wunderground v.1.15,2013-03-18 03:16:00,
2013-03-17 20:21:00,41.9,36.2,30.23,WNW,297,1.0,1.0,80,0.00,,,0.07,0,Wunderground v.1.15,2013-03-18 03:21:00,
2013-03-17 20:26:00,41.9,36.5,30.23,WNW,297,0.0,1.0,81,0.00,,,0.07,0,Wunderground v.1.15,2013-03-18 03:26:00,
2013-03-17 20:31:00,41.8,36.4,30.23,WNW,297,0.0,0.0,81,0.00,,,0.07,0,Wunderground v.1.15,2013-03-18 03:31:00,
2013-03-17 20:36:00,41.8,36.4,30.24,WNW,297,0.0,0.0,81,0.00,,,0.07,0,Wunderground v.1.15,2013-03-18 03:36:00,
2013-03-17 20:41:00,41.6,36.2,30.24,WNW,297,0.0,0.0,81,0.00,,,0.07,0,Wunderground v.1.15,2013-03-18 03:41:00,
2013-03-17 20:47:00,41.6,36.8,30.24,WNW,297,0.0,0.0,83,0.00,,,0.07,0,Wunderground v.1.15,2013-03-18 03:47:00,
2013-03-17 20:52:00,41.5,36.7,30.24,WNW,297,0.0,0.0,83,0.00,,,0.07,0,Wunderground v.1.15,2013-03-18 03:52:00,
2013-03-17 20:57:00,41.3,36.5,30.24,WNW,297,0.0,1.0,83,0.00,,,0.07,0,Wunderground v.1.15,2013-03-18 03:57:00,
2013-03-17 21:00:00,41.3,36.2,30.24,WNW,297,0.0,0.0,82,0.00,,,0.07,0,Wunderground v.1.15,2013-03-18 04:00:00,
2013-03-17 21:01:00,41.3,36.5,30.24,WNW,297,0.0,4.0,83,0.00,,,0.07,0,Wunderground v.1.15,2013-03-18 04:01:00,
2013-03-17 21:03:00,41.3,36.5,30.24,WNW,297,0.0,4.0,83,0.00,,,0.07,0,Wunderground v.1.15,2013-03-18 04:03:00,
2013-03-17 21:05:00,41.3,36.5,30.24,WNW,297,0.0,4.0,83,0.00,,,0.07,0,Wunderground v.1.15,2013-03-18 04:05:00,
2013-03-17 21:12:00,41.2,36.4,30.24,WNW,297,0.0,0.0,83,0.00,,,0.07,0,Wunderground v.1.15,2013-03-18 04:12:00,
2013-03-17 21:18:00,41.2,36.4,30.24,WNW,297,0.0,0.0,83,0.00,,,0.07,0,Wunderground v.1.15,2013-03-18 04:18:00,
2013-03-17 21:23:00,41.2,36.4,30.24,WNW,297,0.0,1.0,83,0.00,,,0.07,0,Wunderground v.1.15,2013-03-18 04:23:00,
2013-03-17 21:28:00,41.2,36.4,30.25,WNW,297,0.0,1.0,83,0.00,,,0.07,0,Wunderground v.1.15,2013-03-18 04:28:00,
2013-03-17 21:33:00,41.2,36.1,30.24,WSW,243,1.0,2.0,82,0.00,,,0.07,0,Wunderground v.1.15,2013-03-18 04:33:00,
2013-03-17 21:38:00,41.2,36.1,30.24,WSW,243,1.0,2.0,82,0.00,,,0.07,0,Wunderground v.1.15,2013-03-18 04:38:00,
2013-03-17 21:44:00,41.2,35.8,30.24,WSW,243,1.0,2.0,81,0.00,,,0.07,0,Wunderground v.1.15,2013-03-18 04:44:00,
2013-03-17 21:49:00,41.2,35.5,30.24,SW,223,1.0,5.0,80,0.00,,,0.07,0,Wunderground v.1.15,2013-03-18 04:49:00,
2013-03-17 21:54:00,41.3,35.3,30.24,South,184,1.0,1.0,79,0.00,,,0.07,0,Wunderground v.1.15,2013-03-18 04:54:00,
2013-03-17 21:59:00,41.3,35.6,30.25,South,184,1.0,1.0,80,0.00,,,0.07,0,Wunderground v.1.15,2013-03-18 04:59:00,
2013-03-17 22:04:00,41.2,35.8,30.24,South,184,0.0,2.0,81,0.00,,,0.07,0,Wunderground v.1.15,2013-03-18 05:04:00,
2013-03-17 22:09:00,41.1,36.0,30.24,South,184,0.0,2.0,82,0.00,,,0.07,0,Wunderground v.1.15,2013-03-18 05:09:00,
2013-03-17 22:14:00,40.9,35.8,30.25,South,184,0.0,2.0,82,0.00,,,0.07,0,Wunderground v.1.15,2013-03-18 05:14:00,
2013-03-17 22:19:00,40.8,36.0,30.24,South,184,0.0,2.0,83,0.00,,,0.07,0,Wunderground v.1.15,2013-03-18 05:19:00,
2013-03-17 22:24:00,40.8,36.0,30.24,South,184,0.0,1.0,83,0.00,,,0.07,0,Wunderground v.1.15,2013-03-18 05:24:00,
2013-03-17 22:29:00,40.6,35.8,30.24,South,184,0.0,2.0,83,0.00,,,0.07,0,Wunderground v.1.15,2013-03-18 05:29:00,
2013-03-17 22:34:00,40.5,35.7,30.25,South,184,0.0,2.0,83,0.00,,,0.07,0,Wunderground v.1.15,2013-03-18 05:34:00,
2013-03-17 22:40:00,40.5,35.7,30.25,South,184,0.0,0.0,83,0.00,,,0.07,0,Wunderground v.1.15,2013-03-18 05:40:00,
2013-03-17 22:45:00,40.5,35.7,30.25,South,184,0.0,2.0,83,0.00,,,0.07,0,Wunderground v.1.15,2013-03-18 05:45:00,
2013-03-17 22:50:00,40.3,35.5,30.25,South,184,1.0,1.0,83,0.00,,,0.07,0,Wunderground v.1.15,2013-03-18 05:50:00,
2013-03-17 22:56:00,40.3,35.5,30.25,South,184,1.0,2.0,83,0.00,,,0.07,0,Wunderground v.1.15,2013-03-18 05:56:00,
2013-03-17 23:01:00,40.2,35.4,30.25,WSW,237,1.0,4.0,83,0.00,,,0.07,0,Wunderground v.1.15,2013-03-18 06:01:00,
2013-03-17 23:06:00,40.2,35.4,30.25,WSW,237,1.0,4.0,83,0.00,,,0.07,0,Wunderground v.1.15,2013-03-18 06:06:00,
2013-03-17 23:12:00,40.1,35.7,30.25,WSW,237,1.0,2.0,84,0.00,,,0.07,0,Wunderground v.1.15,2013-03-18 06:12:00,
2013-03-17 23:17:00,40.1,35.7,30.25,WSW,237,1.0,2.0,84,0.00,,,0.07,0,Wunderground v.1.15,2013-03-18 06:17:00,
2013-03-17 23:22:00,39.9,35.5,30.24,South,191,1.0,3.0,84,0.00,,,0.07,0,Wunderground v.1.15,2013-03-18 06:22:00,
2013-03-17 23:27:00,39.9,35.5,30.24,SSW,192,0.0,3.0,84,0.00,,,0.07,0,Wunderground v.1.15,2013-03-18 06:27:00,
2013-03-17 23:32:00,39.9,35.5,30.24,SSW,192,0.0,0.0,84,0.00,,,0.07,0,Wunderground v.1.15,2013-03-18 06:32:00,
2013-03-17 23:38:00,39.8,35.4,30.25,SSW,192,0.0,0.0,84,0.00,,,0.07,0,Wunderground v.1.15,2013-03-18 06:38:00,
2013-03-17 23:43:00,39.8,35.7,30.25,SSW,192,0.0,0.0,85,0.00,,,0.07,0,Wunderground v.1.15,2013-03-18 06:43:00,
2013-03-17 23:48:00,39.6,35.5,30.25,SSW,192,0.0,1.0,85,0.00,,,0.07,0,Wunderground v.1.15,2013-03-18 06:48:00,
2013-03-17 23:53:00,39.6,35.5,30.25,SSW,192,0.0,1.0,85,0.00,,,0.07,0,Wunderground v.1.15,2013-03-18 06:53:00,
2013-03-17 23:59:00,39.5,35.7,30.24,SSW,192,0.0,1.0,86,0.00,,,0.07,0,Wunderground v.1.15,2013-03-18 06:59:00,